createdAt,value
2019-03-25T00:02:10.929Z,101192.00
2019-03-25T00:04:53.294Z,101183.00
2019-03-25T00:07:23.681Z,101192.00
2019-03-25T00:09:54.035Z,101187.00
2019-03-25T00:12:24.421Z,101185.00
2019-03-25T00:14:54.769Z,101179.00
2019-03-25T00:17:25.149Z,101176.00
2019-03-25T00:19:55.501Z,101171.00
2019-03-25T00:22:25.884Z,101174.00
2019-03-25T00:24:56.238Z,101160.00
2019-03-25T00:27:26.620Z,101169.00
2019-03-25T00:29:56.975Z,101164.00
2019-03-25T00:32:27.348Z,101174.00
2019-03-25T00:34:57.704Z,101161.00
2019-03-25T00:37:28.082Z,101160.00
2019-03-25T00:39:58.439Z,101153.00
2019-03-25T00:42:28.822Z,101146.00
2019-03-25T00:44:59.179Z,101132.00
2019-03-25T00:47:29.558Z,101141.00
2019-03-25T00:49:59.913Z,101130.00
2019-03-25T00:52:30.295Z,101115.00
2019-03-25T00:55:00.650Z,101117.00
2019-03-25T00:57:31.025Z,101110.00
2019-03-25T01:00:01.398Z,101110.00
2019-03-25T01:02:33.431Z,101087.00
2019-03-25T01:05:04.254Z,101082.00
2019-03-25T01:07:34.625Z,101070.00
2019-03-25T01:10:07.685Z,101073.00
2019-03-25T01:12:38.040Z,101070.00
2019-03-25T01:15:08.848Z,101073.00
2019-03-25T01:17:39.259Z,101069.00
2019-03-25T01:20:10.327Z,101063.00
2019-03-25T01:22:40.648Z,101047.00
2019-03-25T01:25:11.026Z,101046.00
2019-03-25T01:27:41.383Z,101049.00
2019-03-25T01:30:12.965Z,101038.00
2019-03-25T01:32:43.326Z,101039.00
2019-03-25T01:35:13.703Z,101035.00
2019-03-25T01:37:44.055Z,101026.00
2019-03-25T01:40:15.146Z,101026.00
2019-03-25T01:42:45.503Z,101014.00
2019-03-25T01:45:15.955Z,101018.00
2019-03-25T01:47:46.313Z,101001.00
2019-03-25T01:50:16.685Z,101008.00
2019-03-25T01:52:47.035Z,101001.00
2019-03-25T01:55:17.417Z,101001.00
2019-03-25T01:57:47.770Z,100997.00
2019-03-25T02:00:30.003Z,100995.00
2019-03-25T02:03:00.354Z,100987.00
2019-03-25T02:05:30.735Z,100986.00
2019-03-25T02:08:01.094Z,100980.00
2019-03-25T02:10:31.470Z,100976.00
2019-03-25T02:13:01.828Z,100973.00
2019-03-25T02:15:32.209Z,100972.00
2019-03-25T02:18:02.663Z,100974.00
2019-03-25T02:20:33.046Z,100975.00
2019-03-25T02:23:03.643Z,100966.00
2019-03-25T02:25:34.162Z,100963.00
2019-03-25T02:28:04.522Z,100956.00
2019-03-25T02:30:34.982Z,100946.00
2019-03-25T02:33:05.345Z,100947.00
2019-03-25T02:35:47.470Z,100945.00
2019-03-25T02:38:17.848Z,100931.00
2019-03-25T02:40:48.228Z,100928.00
2019-03-25T02:43:18.586Z,100928.00
2019-03-25T02:45:48.964Z,100924.00
2019-03-25T02:48:19.330Z,100928.00
2019-03-25T02:50:49.712Z,100906.00
2019-03-25T02:53:20.068Z,100914.00
2019-03-25T02:55:50.453Z,100907.00
2019-03-25T02:58:20.881Z,100902.00
2019-03-25T03:00:51.323Z,100899.00
2019-03-25T03:03:21.675Z,100892.00
2019-03-25T03:05:52.063Z,100885.00
2019-03-25T03:08:22.414Z,100884.00
2019-03-25T03:10:52.793Z,100879.00
2019-03-25T03:13:23.153Z,100880.00
2019-03-25T03:15:53.527Z,100867.00
2019-03-25T03:18:23.882Z,100870.00
2019-03-25T03:20:54.264Z,100871.00
2019-03-25T03:23:24.617Z,100858.00
2019-03-25T03:25:57.793Z,100858.00
2019-03-25T03:28:27.101Z,100851.00
2019-03-25T03:30:57.489Z,100845.00
2019-03-25T03:33:27.856Z,100844.00
2019-03-25T03:35:58.224Z,100837.00
2019-03-25T03:38:28.583Z,100838.00
2019-03-25T03:40:59.672Z,100824.00
2019-03-25T03:43:30.034Z,100832.00
2019-03-25T03:46:00.412Z,100828.00
2019-03-25T03:48:30.771Z,100821.00
2019-03-25T03:51:01.719Z,100821.00
2019-03-25T03:53:32.544Z,100818.00
2019-03-25T03:56:12.784Z,100823.00
2019-03-25T03:58:36.031Z,100816.00
2019-03-25T04:01:06.411Z,100802.00
2019-03-25T04:03:36.762Z,100800.00
2019-03-25T04:06:07.146Z,100787.00
2019-03-25T04:08:37.511Z,100782.00
2019-03-25T04:11:07.884Z,100780.00
2019-03-25T04:13:38.235Z,100767.00
2019-03-25T04:16:08.611Z,100774.00
2019-03-25T04:18:38.972Z,100761.00
2019-03-25T04:21:09.348Z,100763.00
2019-03-25T04:23:39.726Z,100746.00
2019-03-25T04:26:10.093Z,100742.00
2019-03-25T04:28:40.437Z,100743.00
2019-03-25T04:31:10.822Z,100745.00
2019-03-25T04:33:41.245Z,100740.00
2019-03-25T04:36:11.626Z,100744.00
2019-03-25T04:38:41.979Z,100729.00
2019-03-25T04:41:12.366Z,100708.00
2019-03-25T04:43:42.725Z,100719.00
2019-03-25T04:46:13.279Z,100717.00
2019-03-25T04:48:43.636Z,100708.00
2019-03-25T04:51:14.026Z,100713.00
2019-03-25T04:53:44.378Z,100698.00
2019-03-25T04:56:14.775Z,100700.00
2019-03-25T04:58:45.133Z,100686.00
2019-03-25T05:01:15.516Z,100699.00
2019-03-25T05:03:45.905Z,100690.00
2019-03-25T05:06:16.264Z,100686.00
2019-03-25T05:08:46.653Z,100676.00
2019-03-25T05:11:16.999Z,100676.00
2019-03-25T05:13:47.380Z,100671.00
2019-03-25T05:16:18.717Z,100667.00
2019-03-25T05:18:49.194Z,100666.00
2019-03-25T05:21:19.563Z,100663.00
2019-03-25T05:23:49.946Z,100653.00
2019-03-25T05:26:21.478Z,100653.00
2019-03-25T05:28:51.855Z,100657.00
2019-03-25T05:31:22.206Z,100653.00
2019-03-25T05:33:52.597Z,100653.00
2019-03-25T05:36:22.953Z,100639.00
2019-03-25T05:38:53.336Z,100638.00
2019-03-25T05:41:23.692Z,100650.00
2019-03-25T05:43:54.075Z,100642.00
2019-03-25T05:46:24.807Z,100627.00
2019-03-25T05:48:55.183Z,100631.00
2019-03-25T05:51:25.540Z,100632.00
2019-03-25T05:53:55.918Z,100628.00
2019-03-25T05:56:26.280Z,100621.00
2019-03-25T05:58:56.664Z,100630.00
2019-03-25T06:01:27.289Z,100630.00
2019-03-25T06:03:57.673Z,100631.00
2019-03-25T06:06:28.028Z,100646.00
2019-03-25T06:08:58.419Z,100632.00
2019-03-25T06:11:28.772Z,100636.00
2019-03-25T06:13:59.222Z,100630.00
2019-03-25T06:16:29.586Z,100625.00
2019-03-25T06:18:59.962Z,100626.00
2019-03-25T06:21:30.317Z,100621.00
2019-03-25T06:24:00.709Z,100625.00
2019-03-25T06:26:31.072Z,100626.00
2019-03-25T06:29:01.483Z,100636.00
2019-03-25T06:31:31.848Z,100627.00
2019-03-25T06:34:02.233Z,100637.00
2019-03-25T06:36:33.564Z,100636.00
2019-03-25T06:39:05.314Z,100634.00
2019-03-25T06:41:35.672Z,100635.00
2019-03-25T06:44:06.057Z,100639.00
2019-03-25T06:46:36.417Z,100638.00
2019-03-25T06:49:06.792Z,100644.00
2019-03-25T06:51:38.221Z,100652.00
2019-03-25T06:54:08.594Z,100651.00
2019-03-25T06:56:38.960Z,100649.00
2019-03-25T06:59:10.291Z,100652.00
2019-03-25T07:01:40.643Z,100650.00
2019-03-25T07:04:11.024Z,100653.00
2019-03-25T07:06:42.349Z,100652.00
2019-03-25T07:09:12.738Z,100647.00
2019-03-25T07:11:43.528Z,100648.00
2019-03-25T07:14:14.358Z,100653.00
2019-03-25T07:16:45.762Z,100639.00
2019-03-25T07:19:16.130Z,100638.00
2019-03-25T07:21:46.483Z,100638.00
2019-03-25T07:24:16.856Z,100641.00
2019-03-25T07:26:47.218Z,100648.00
2019-03-25T07:29:17.605Z,100654.00
2019-03-25T07:31:47.963Z,100663.00
2019-03-25T07:34:18.344Z,100655.00
2019-03-25T07:36:48.803Z,100655.00
2019-03-25T07:39:19.190Z,100654.00
2019-03-25T07:41:49.549Z,100648.00
2019-03-25T07:44:19.930Z,100653.00
2019-03-25T07:46:50.294Z,100664.00
2019-03-25T07:49:20.679Z,100657.00
2019-03-25T07:51:51.029Z,100658.00
2019-03-25T07:54:21.419Z,100655.00
2019-03-25T07:56:51.769Z,100659.00
2019-03-25T07:59:22.203Z,100666.00
2019-03-25T08:01:52.535Z,100667.00
2019-03-25T08:04:22.915Z,100668.00
2019-03-25T08:06:53.308Z,100664.00
2019-03-25T08:09:23.691Z,100657.00
2019-03-25T08:11:54.096Z,100663.00
2019-03-25T08:14:24.441Z,100662.00
2019-03-25T08:16:54.808Z,100670.00
2019-03-25T08:19:25.175Z,100662.00
2019-03-25T08:21:55.550Z,100675.00
2019-03-25T08:24:25.897Z,100680.00
2019-03-25T08:26:56.278Z,100674.00
2019-03-25T08:29:26.634Z,100668.00
2019-03-25T08:31:58.963Z,100679.00
2019-03-25T08:34:29.068Z,100680.00
2019-03-25T08:36:59.461Z,100682.00
2019-03-25T08:39:29.821Z,100682.00
2019-03-25T08:42:00.272Z,100694.00
2019-03-25T08:44:30.616Z,100696.00
2019-03-25T08:47:00.997Z,100689.00
2019-03-25T08:49:31.357Z,100692.00
2019-03-25T08:52:01.728Z,100701.00
2019-03-25T08:54:32.077Z,100695.00
2019-03-25T08:57:02.460Z,100696.00
2019-03-25T08:59:32.807Z,100702.00
2019-03-25T09:02:03.182Z,100695.00
2019-03-25T09:04:33.522Z,100708.00
2019-03-25T09:07:03.904Z,100716.00
2019-03-25T09:09:34.258Z,100713.00
2019-03-25T09:12:04.781Z,100718.00
2019-03-25T09:14:35.141Z,100720.00
2019-03-25T09:17:05.567Z,100724.00
2019-03-25T09:19:35.919Z,100716.00
2019-03-25T09:22:06.642Z,100708.00
2019-03-25T09:24:37.003Z,100713.00
2019-03-25T09:27:07.369Z,100734.00
2019-03-25T09:29:37.719Z,100740.00
2019-03-25T09:32:08.094Z,100723.00
2019-03-25T09:34:38.539Z,100732.00
2019-03-25T09:37:08.983Z,100731.00
2019-03-25T09:39:39.334Z,100739.00
2019-03-25T09:42:09.703Z,100739.00
2019-03-25T09:44:40.119Z,100741.00
2019-03-25T09:47:10.949Z,100737.00
2019-03-25T09:49:44.516Z,100746.00
2019-03-25T09:52:14.891Z,100750.00
2019-03-25T09:54:45.294Z,100740.00
2019-03-25T09:57:15.692Z,100746.00
2019-03-25T09:59:46.267Z,100751.00
2019-03-25T10:02:16.721Z,100741.00
2019-03-25T10:04:47.276Z,100742.00
2019-03-25T10:07:21.774Z,100749.00
2019-03-25T10:09:55.179Z,100756.00
2019-03-25T10:12:25.624Z,100759.00
2019-03-25T10:14:56.013Z,100759.00
2019-03-25T10:17:26.393Z,100776.00
2019-03-25T10:19:56.739Z,100775.00
2019-03-25T10:22:27.121Z,100775.00
2019-03-25T10:24:57.503Z,100781.00
2019-03-25T10:27:27.878Z,100788.00
2019-03-25T10:29:58.237Z,100781.00
2019-03-25T10:32:28.614Z,100764.00
2019-03-25T10:34:58.965Z,100776.00
2019-03-25T10:37:29.415Z,100786.00
2019-03-25T10:39:59.772Z,100782.00
2019-03-25T10:42:30.152Z,100787.00
2019-03-25T10:45:00.604Z,100771.00
2019-03-25T10:47:30.977Z,100772.00
2019-03-25T10:50:01.338Z,100783.00
2019-03-25T10:52:31.724Z,100786.00
2019-03-25T10:55:02.107Z,100794.00
2019-03-25T10:57:32.488Z,100802.00
2019-03-25T11:00:02.956Z,100801.00
2019-03-25T11:02:34.952Z,100762.00
2019-03-25T11:05:07.609Z,100758.00
2019-03-25T11:07:38.154Z,100762.00
2019-03-25T11:10:10.074Z,100765.00
2019-03-25T11:12:40.534Z,100758.00
2019-03-25T11:15:11.351Z,100777.00
2019-03-25T11:17:41.745Z,100773.00
2019-03-25T11:20:13.613Z,100797.00
2019-03-25T11:22:44.001Z,100802.00
2019-03-25T11:25:16.273Z,100798.00
2019-03-25T11:27:54.241Z,100804.00
2019-03-25T11:30:39.948Z,100808.00
2019-03-25T11:33:10.331Z,100807.00
2019-03-25T11:35:40.695Z,100772.00
2019-03-25T11:38:11.091Z,100807.00
2019-03-25T11:40:41.458Z,100793.00
2019-03-25T11:43:11.865Z,100806.00
2019-03-25T11:45:42.232Z,100769.00
2019-03-25T11:48:12.612Z,100762.00
2019-03-25T11:50:42.996Z,100785.00
2019-03-25T11:53:13.360Z,100769.00
2019-03-25T11:55:43.742Z,100763.00
2019-03-25T11:58:14.105Z,100768.00
2019-03-25T12:00:44.666Z,100766.00
2019-03-25T12:03:15.021Z,100772.00
2019-03-25T12:05:45.413Z,100773.00
2019-03-25T12:08:15.781Z,100778.00
2019-03-25T12:10:46.153Z,100796.00
2019-03-25T12:13:16.523Z,100796.00
2019-03-25T12:15:46.913Z,100792.00
2019-03-25T12:18:17.279Z,100796.00
2019-03-25T12:20:47.721Z,100804.00
2019-03-25T12:23:25.907Z,100809.00
2019-03-25T12:25:50.238Z,100817.00
2019-03-25T12:28:20.938Z,100806.00
2019-03-25T12:30:52.799Z,100808.00
2019-03-25T12:33:23.159Z,100820.00
2019-03-25T12:35:53.543Z,100820.00
2019-03-25T12:38:23.972Z,100823.00
2019-03-25T12:40:54.362Z,100823.00
2019-03-25T12:43:24.731Z,100823.00
2019-03-25T12:45:55.113Z,100825.00
2019-03-25T12:48:25.485Z,100805.00
2019-03-25T12:50:55.866Z,100805.00
2019-03-25T12:53:26.227Z,100810.00
2019-03-25T12:55:56.609Z,100815.00
2019-03-25T12:58:26.978Z,100819.00
2019-03-25T13:00:57.103Z,100825.00
2019-03-25T13:03:27.325Z,100812.00
2019-03-25T13:05:57.711Z,100817.00
2019-03-25T13:08:33.017Z,100823.00
2019-03-25T13:11:00.152Z,100815.00
2019-03-25T13:13:30.520Z,100819.00
2019-03-25T13:16:00.903Z,100816.00
2019-03-25T13:18:31.268Z,100828.00
2019-03-25T13:21:01.655Z,100843.00
2019-03-25T13:23:32.017Z,100852.00
2019-03-25T13:26:02.402Z,100854.00
2019-03-25T13:28:32.525Z,100864.00
2019-03-25T13:31:02.544Z,100860.00
2019-03-25T13:33:32.790Z,100875.00
2019-03-25T13:36:05.038Z,100883.00
2019-03-25T13:38:36.465Z,100883.00
2019-03-25T13:41:06.851Z,100888.00
2019-03-25T13:43:38.342Z,100911.00
2019-03-25T13:46:08.725Z,100927.00
2019-03-25T13:48:39.077Z,100932.00
2019-03-25T13:51:09.446Z,100927.00
2019-03-25T13:53:39.793Z,100922.00
2019-03-25T13:56:10.165Z,100935.00
2019-03-25T13:58:40.513Z,100945.00
2019-03-25T14:01:10.882Z,100944.00
2019-03-25T14:03:41.308Z,100943.00
2019-03-25T14:06:11.687Z,100939.00
2019-03-25T14:08:42.053Z,100944.00
2019-03-25T14:11:12.424Z,100943.00
2019-03-25T14:13:49.240Z,100947.00
2019-03-25T14:16:14.880Z,100944.00
2019-03-25T14:18:45.234Z,100940.00
2019-03-25T14:21:15.614Z,100944.00
2019-03-25T14:23:46.289Z,100941.00
2019-03-25T14:26:16.661Z,100941.00
2019-03-25T14:28:47.005Z,100942.00
2019-03-25T14:31:17.388Z,100942.00
2019-03-25T14:33:47.741Z,100943.00
2019-03-25T14:36:18.119Z,100948.00
2019-03-25T14:38:48.542Z,100946.00
2019-03-25T14:41:19.891Z,100958.00
2019-03-25T14:43:50.250Z,100950.00
2019-03-25T14:46:20.632Z,100951.00
2019-03-25T14:48:50.982Z,100958.00
2019-03-25T14:51:21.376Z,100956.00
2019-03-25T14:53:51.736Z,100958.00
2019-03-25T14:56:22.121Z,100967.00
2019-03-25T14:58:52.479Z,100962.00
2019-03-25T15:01:22.854Z,100977.00
2019-03-25T15:03:53.795Z,100973.00
2019-03-25T15:06:24.178Z,100989.00
2019-03-25T15:08:54.525Z,100981.00
2019-03-25T15:11:24.901Z,100980.00
2019-03-25T15:13:55.249Z,100993.00
2019-03-25T15:16:25.629Z,100993.00
2019-03-25T15:18:56.080Z,100997.00
2019-03-25T15:21:26.457Z,101006.00
2019-03-25T15:23:56.805Z,101000.00
2019-03-25T15:26:27.177Z,101003.00
2019-03-25T15:28:57.699Z,101008.00
2019-03-25T15:31:28.087Z,101016.00
2019-03-25T15:33:58.439Z,101023.00
2019-03-25T15:36:28.826Z,101027.00
2019-03-25T15:38:59.178Z,101026.00
2019-03-25T15:41:29.554Z,101026.00
2019-03-25T15:43:59.904Z,101034.00
2019-03-25T15:46:33.966Z,101032.00
2019-03-25T15:49:04.586Z,101046.00
2019-03-25T15:51:34.971Z,101048.00
2019-03-25T15:54:05.400Z,101049.00
2019-03-25T15:56:35.777Z,101047.00
2019-03-25T15:59:06.174Z,101056.00
2019-03-25T16:01:36.563Z,101063.00
2019-03-25T16:04:06.983Z,101059.00
2019-03-25T16:06:37.358Z,101061.00
2019-03-25T16:09:09.062Z,101070.00
2019-03-25T16:11:39.435Z,101071.00
2019-03-25T16:14:09.776Z,101072.00
2019-03-25T16:16:40.168Z,101076.00
2019-03-25T16:19:10.618Z,101083.00
2019-03-25T16:21:40.996Z,101084.00
2019-03-25T16:24:11.418Z,101082.00
2019-03-25T16:26:42.870Z,101094.00
2019-03-25T16:29:13.227Z,101096.00
2019-03-25T16:31:43.600Z,101100.00
2019-03-25T16:34:13.972Z,101109.00
2019-03-25T16:36:44.366Z,101109.00
2019-03-25T16:39:14.840Z,101111.00
2019-03-25T16:41:45.283Z,101112.00
2019-03-25T16:44:15.642Z,101115.00
2019-03-25T16:46:46.293Z,101115.00
2019-03-25T16:49:16.653Z,101133.00
2019-03-25T16:51:47.501Z,101127.00
2019-03-25T16:54:17.850Z,101139.00
2019-03-25T16:56:48.248Z,101131.00
2019-03-25T16:59:18.592Z,101138.00
2019-03-25T17:01:48.978Z,101136.00
2019-03-25T17:04:19.333Z,101140.00
2019-03-25T17:06:49.707Z,101147.00
2019-03-25T17:09:20.249Z,101156.00
2019-03-25T17:11:50.602Z,101163.00
2019-03-25T17:14:20.978Z,101160.00
2019-03-25T17:16:51.321Z,101167.00
2019-03-25T17:19:21.696Z,101164.00
2019-03-25T17:21:58.103Z,101171.00
2019-03-25T17:24:24.125Z,101181.00
2019-03-25T17:26:54.481Z,101187.00
2019-03-25T17:29:24.852Z,101188.00
2019-03-25T17:31:55.276Z,101192.00
2019-03-25T17:34:25.652Z,101205.00
2019-03-25T17:36:56.004Z,101202.00
2019-03-25T17:39:26.376Z,101209.00
2019-03-25T17:41:57.649Z,101209.00
2019-03-25T17:44:28.021Z,101223.00
2019-03-25T17:46:58.376Z,101219.00
2019-03-25T17:49:28.925Z,101226.00
2019-03-25T17:51:59.285Z,101229.00
2019-03-25T17:54:29.669Z,101238.00
2019-03-25T17:57:00.021Z,101246.00
2019-03-25T17:59:30.392Z,101245.00
2019-03-25T18:02:00.743Z,101254.00
2019-03-25T18:04:31.122Z,101258.00
2019-03-25T18:07:01.486Z,101265.00
2019-03-25T18:09:31.867Z,101271.00
2019-03-25T18:12:02.222Z,101280.00
2019-03-25T18:14:33.480Z,101288.00
2019-03-25T18:17:03.914Z,101301.00
2019-03-25T18:19:34.293Z,101300.00
2019-03-25T18:22:05.417Z,101307.00
2019-03-25T18:24:35.787Z,101316.00
2019-03-25T18:27:06.144Z,101323.00
2019-03-25T18:29:36.517Z,101319.00
2019-03-25T18:32:06.865Z,101334.00
2019-03-25T18:34:37.249Z,101336.00
2019-03-25T18:37:07.599Z,101327.00
2019-03-25T18:39:37.976Z,101347.00
2019-03-25T18:42:08.322Z,101355.00
2019-03-25T18:44:38.701Z,101358.00
2019-03-25T18:47:13.043Z,101359.00
2019-03-25T18:49:43.430Z,101376.00
2019-03-25T18:52:13.794Z,101367.00
2019-03-25T18:54:44.173Z,101376.00
2019-03-25T18:57:14.535Z,101380.00
2019-03-25T18:59:44.927Z,101378.00
2019-03-25T19:02:15.379Z,101377.00
2019-03-25T19:04:46.431Z,101389.00
2019-03-25T19:07:16.961Z,101390.00
2019-03-25T19:09:48.191Z,101394.00
2019-03-25T19:12:18.539Z,101398.00
2019-03-25T19:14:48.992Z,101400.00
2019-03-25T19:17:19.333Z,101396.00
2019-03-25T19:19:49.688Z,101400.00
2019-03-25T19:22:20.125Z,101415.00
2019-03-25T19:24:50.500Z,101420.00
2019-03-25T19:27:20.861Z,101429.00
2019-03-25T19:29:51.251Z,101431.00
2019-03-25T19:32:21.661Z,101430.00
2019-03-25T19:34:52.010Z,101438.00
2019-03-25T19:37:22.375Z,101433.00
2019-03-25T19:39:52.767Z,101439.00
2019-03-25T19:42:23.131Z,101445.00
2019-03-25T19:44:53.504Z,101452.00
2019-03-25T19:47:23.871Z,101459.00
2019-03-25T19:49:54.280Z,101463.00
2019-03-25T19:52:24.608Z,101470.00
2019-03-25T19:54:54.987Z,101475.00
2019-03-25T19:57:28.109Z,101470.00
2019-03-25T19:59:57.453Z,101477.00
2019-03-25T20:02:27.820Z,101489.00
2019-03-25T20:04:58.247Z,101487.00
2019-03-25T20:07:28.548Z,101490.00
2019-03-25T20:09:59.144Z,101496.00
2019-03-25T20:12:29.464Z,101500.00
2019-03-25T20:14:59.887Z,101512.00
2019-03-25T20:17:30.251Z,101513.00
2019-03-25T20:20:00.606Z,101519.00
2019-03-25T20:22:30.942Z,101527.00
2019-03-25T20:25:01.380Z,101539.00
2019-03-25T20:27:31.775Z,101533.00
2019-03-25T20:30:02.223Z,101545.00
2019-03-25T20:32:32.952Z,101545.00
2019-03-25T20:35:03.620Z,101556.00
2019-03-25T20:37:33.965Z,101547.00
2019-03-25T20:40:06.732Z,101545.00
2019-03-25T20:42:37.859Z,101554.00
2019-03-25T20:45:13.995Z,101561.00
2019-03-25T20:47:44.368Z,101560.00
2019-03-25T20:50:15.725Z,101556.00
2019-03-25T20:52:47.034Z,101569.00
2019-03-25T20:55:17.541Z,101574.00
2019-03-25T20:57:48.000Z,101574.00
2019-03-25T21:00:22.937Z,101573.00
2019-03-25T21:02:53.442Z,101577.00
2019-03-25T21:05:23.810Z,101588.00
2019-03-25T21:07:54.218Z,101591.00
2019-03-25T21:10:24.605Z,101594.00
2019-03-25T21:12:54.971Z,101597.00
2019-03-25T21:15:25.283Z,101595.00
2019-03-25T21:17:55.748Z,101607.00
2019-03-25T21:20:26.088Z,101621.00
2019-03-25T21:22:56.659Z,101625.00
2019-03-25T21:25:27.013Z,101632.00
2019-03-25T21:27:57.352Z,101635.00
2019-03-25T21:30:28.437Z,101643.00
2019-03-25T21:32:59.055Z,101650.00
2019-03-25T21:35:30.164Z,101653.00
2019-03-25T21:38:00.528Z,101661.00
2019-03-25T21:40:30.949Z,101658.00
2019-03-25T21:43:02.444Z,101660.00
2019-03-25T21:45:32.763Z,101661.00
2019-03-25T21:48:03.133Z,101654.00
2019-03-25T21:50:33.643Z,101658.00
2019-03-25T21:53:04.160Z,101658.00
2019-03-25T21:55:34.580Z,101656.00
2019-03-25T21:58:05.200Z,101657.00
2019-03-25T22:00:35.540Z,101652.00
2019-03-25T22:03:12.115Z,101656.00
2019-03-25T22:05:38.049Z,101666.00
2019-03-25T22:08:08.432Z,101657.00
2019-03-25T22:10:38.794Z,101663.00
2019-03-25T22:13:09.181Z,101673.00
2019-03-25T22:15:39.537Z,101666.00
2019-03-25T22:18:09.932Z,101680.00
2019-03-25T22:20:40.283Z,101680.00
2019-03-25T22:23:10.665Z,101691.00
2019-03-25T22:25:41.050Z,101699.00
2019-03-25T22:28:11.434Z,101699.00
2019-03-25T22:30:41.788Z,101701.00
2019-03-25T22:33:24.919Z,101693.00
2019-03-25T22:35:44.230Z,101698.00
2019-03-25T22:38:33.919Z,101704.00
2019-03-25T22:41:04.308Z,101702.00
2019-03-25T22:43:34.669Z,101703.00
2019-03-25T22:46:05.116Z,101714.00
2019-03-25T22:48:35.624Z,101715.00
2019-03-25T22:51:06.012Z,101717.00
2019-03-25T22:53:55.714Z,101715.00
2019-03-25T22:56:26.096Z,101717.00
2019-03-25T22:58:56.473Z,101706.00
2019-03-25T23:01:27.195Z,101719.00
2019-03-25T23:03:57.557Z,101715.00
2019-03-25T23:06:28.263Z,101733.00
2019-03-25T23:08:58.620Z,101726.00
2019-03-25T23:11:29.005Z,101730.00
2019-03-25T23:13:59.368Z,101734.00
2019-03-25T23:16:29.817Z,101740.00
2019-03-25T23:19:00.168Z,101750.00
2019-03-25T23:21:30.555Z,101765.00
2019-03-25T23:24:00.939Z,101775.00
2019-03-25T23:26:31.380Z,101773.00
2019-03-25T23:29:01.734Z,101770.00
2019-03-25T23:31:32.278Z,101773.00
2019-03-25T23:34:02.641Z,101783.00
2019-03-25T23:36:33.093Z,101787.00
2019-03-25T23:39:04.801Z,101777.00
2019-03-25T23:41:35.440Z,101772.00
2019-03-25T23:44:05.805Z,101784.00
2019-03-25T23:46:36.186Z,101793.00
2019-03-25T23:49:06.552Z,101786.00
2019-03-25T23:51:36.933Z,101795.00
2019-03-25T23:54:14.362Z,101792.00
2019-03-25T23:56:44.820Z,101795.00
2019-03-25T23:59:15.177Z,101797.00
